Time;durP1;ratioP1;P1;durP2;ratioP2;P2;SDS_P1;SDS_P2;PMS_P1;PMS_P2;Temp;Humidity;BMP_temperature;BMP_pressure;BME280_temperature;BME280_humidity;BME280_pressure;Samples;Min_cycle;Max_cycle;Signal;HPM_P1;HPM_P2
2022/05/01 00:00:53;;;;;;;5.42;4.60;;;14.60;81.10;;;;;;1858170;77;21045;-57
2022/05/01 00:03:33;;;;;;;5.53;4.70;;;14.60;81.00;;;;;;1858025;77;21041;-57
2022/05/01 00:06:05;;;;;;;5.17;3.87;;;14.60;80.90;;;;;;1858132;77;21005;-57
2022/05/01 00:08:35;;;;;;;5.47;3.92;;;14.60;80.80;;;;;;1857913;76;21119;-57
2022/05/01 00:11:05;;;;;;;6.22;4.35;;;14.60;80.60;;;;;;1858178;76;21103;-57
2022/05/01 00:13:35;;;;;;;10.05;4.00;;;14.60;80.60;;;;;;1858011;76;21115;-57
2022/05/01 00:16:04;;;;;;;7.95;4.22;;;14.60;80.60;;;;;;1858084;77;21025;-57
2022/05/01 00:18:34;;;;;;;7.00;3.90;;;14.60;80.70;;;;;;1858086;77;21136;-57
2022/05/01 00:21:04;;;;;;;5.47;4.33;;;14.60;81.00;;;;;;1858082;77;21103;-57
2022/05/01 00:23:33;;;;;;;5.75;4.22;;;14.60;81.10;;;;;;1858022;77;21033;-57
2022/05/01 00:26:07;;;;;;;5.72;4.60;;;14.50;81.50;;;;;;1858047;77;21029;-57
2022/05/01 00:28:37;;;;;;;7.10;4.42;;;14.50;81.50;;;;;;1858164;77;21162;-57
2022/05/01 00:31:08;;;;;;;9.55;5.17;;;14.50;81.40;;;;;;1858164;77;21635;-58
2022/05/01 00:36:28;;;;;;;9.30;4.72;;;14.50;81.80;;;;;;1858407;77;21037;-57
2022/05/01 00:39:02;;;;;;;7.53;4.75;;;14.50;82.10;;;;;;1858148;77;21081;-57
2022/05/01 00:41:33;;;;;;;7.83;4.75;;;14.50;82.00;;;;;;1858399;77;21444;-57
2022/05/01 00:44:14;;;;;;;5.03;4.37;;;14.50;82.10;;;;;;1858118;76;21072;-57
2022/05/01 00:46:46;;;;;;;6.60;4.80;;;14.50;81.80;;;;;;1858259;76;21026;-57
2022/05/01 00:49:23;;;;;;;7.10;3.92;;;14.40;82.00;;;;;;1858168;76;21057;-57
2022/05/01 00:51:57;;;;;;;6.35;4.75;;;14.50;82.20;;;;;;1858218;77;21022;-58
2022/05/01 00:54:32;;;;;;;7.00;5.47;;;14.40;82.00;;;;;;1858357;77;21052;-57
2022/05/01 00:57:06;;;;;;;5.62;4.62;;;14.40;82.10;;;;;;1858261;77;21459;-57
2022/05/01 00:59:36;;;;;;;5.72;4.37;;;14.40;82.10;;;;;;1858098;77;21025;-57
2022/05/01 01:02:07;;;;;;;6.70;5.12;;;14.50;82.10;;;;;;1858296;77;21534;-57
2022/05/01 01:04:36;;;;;;;6.47;5.12;;;14.40;81.90;;;;;;1858173;76;20997;-57
2022/05/01 01:07:05;;;;;;;5.47;4.65;;;14.40;81.90;;;;;;1858085;76;21480;-58
2022/05/01 01:09:35;;;;;;;6.10;4.90;;;14.40;82.00;;;;;;1852262;76;21497;-58
2022/05/01 01:14:53;;;;;;;9.05;4.75;;;14.40;82.00;;;;;;1851092;77;21059;-57
2022/05/01 01:17:22;;;;;;;7.53;4.70;;;14.30;81.90;;;;;;1851037;76;21101;-56
2022/05/01 01:19:51;;;;;;;6.50;4.25;;;14.30;81.90;;;;;;1851127;77;21421;-57
2022/05/01 01:22:21;;;;;;;5.85;4.45;;;14.30;81.90;;;;;;1851012;76;21026;-57
2022/05/01 01:24:50;;;;;;;5.65;3.70;;;14.30;81.90;;;;;;1850966;77;21618;-57
2022/05/01 01:27:19;;;;;;;5.75;4.40;;;14.30;82.00;;;;;;1851069;77;21124;-57
2022/05/01 01:32:39;;;;;;;5.62;4.12;;;14.20;81.90;;;;;;1851074;77;21075;-57
2022/05/01 01:35:10;;;;;;;4.87;4.28;;;14.10;81.90;;;;;;1851070;77;21046;-57
2022/05/01 01:37:41;;;;;;;5.10;3.87;;;14.10;81.80;;;;;;1850963;77;21034;-57
2022/05/01 01:40:11;;;;;;;5.80;3.77;;;14.10;81.90;;;;;;1850947;76;21074;-56
2022/05/01 01:42:41;;;;;;;3.98;3.58;;;14.10;81.90;;;;;;1850863;77;21128;-57
2022/05/01 01:45:12;;;;;;;3.77;3.37;;;14.10;81.50;;;;;;1851034;76;21112;-57
2022/05/01 01:47:43;;;;;;;2.00;1.82;;;14.10;81.30;;;;;;1851017;76;21038;-58
2022/05/01 01:50:15;;;;;;;4.15;3.10;;;14.10;80.80;;;;;;1850923;77;21062;-57
2022/05/01 01:52:48;;;;;;;3.60;3.27;;;14.10;80.80;;;;;;1850960;76;21047;-57
2022/05/01 01:55:18;;;;;;;4.62;3.15;;;14.00;80.80;;;;;;1851044;77;21050;-57
2022/05/01 01:57:47;;;;;;;6.15;2.80;;;14.00;80.90;;;;;;1851015;77;21114;-57
2022/05/01 02:00:17;;;;;;;4.70;3.15;;;14.00;81.00;;;;;;1850935;77;21038;-57
2022/05/01 02:02:46;;;;;;;3.08;2.70;;;14.00;80.60;;;;;;1850977;76;21043;-57
2022/05/01 02:05:16;;;;;;;3.45;2.67;;;14.00;80.70;;;;;;1850875;77;21070;-57
2022/05/01 02:07:45;;;;;;;3.20;2.60;;;14.00;80.00;;;;;;1850916;77;21042;-57
2022/05/01 02:10:15;;;;;;;3.55;3.10;;;14.00;80.10;;;;;;1857111;76;21071;-57
2022/05/01 02:12:44;;;;;;;3.12;2.83;;;14.00;80.00;;;;;;1858093;76;21025;-57
2022/05/01 02:15:13;;;;;;;3.25;2.80;;;13.90;79.80;;;;;;1858221;77;21029;-57
2022/05/01 02:17:43;;;;;;;4.28;2.62;;;13.90;79.60;;;;;;1858161;77;21022;-57
2022/05/01 02:20:12;;;;;;;2.85;2.65;;;13.80;79.30;;;;;;1858141;77;21022;-57
2022/05/01 02:22:42;;;;;;;3.22;2.87;;;13.80;79.30;;;;;;1858108;76;21108;-57
2022/05/01 02:25:12;;;;;;;3.05;2.25;;;13.80;79.70;;;;;;1858176;77;21025;-57
2022/05/01 02:27:42;;;;;;;4.78;2.72;;;13.80;79.70;;;;;;1858036;76;21029;-57
2022/05/01 02:30:11;;;;;;;3.15;2.85;;;13.80;79.10;;;;;;1858159;76;21030;-57
2022/05/01 02:32:41;;;;;;;2.65;2.12;;;13.80;79.30;;;;;;1858140;76;21025;-57
2022/05/01 02:35:11;;;;;;;4.00;2.27;;;13.80;79.00;;;;;;1858207;77;21099;-57
2022/05/01 02:37:40;;;;;;;5.28;2.52;;;13.80;78.50;;;;;;1858064;77;21220;-57
2022/05/01 02:40:10;;;;;;;2.75;2.35;;;13.80;78.20;;;;;;1858203;77;21499;-57
2022/05/01 02:42:39;;;;;;;6.08;2.22;;;13.80;78.20;;;;;;1857997;77;21033;-57
2022/05/01 02:45:10;;;;;;;3.25;2.60;;;13.80;77.90;;;;;;1858155;77;21029;-57
2022/05/01 02:47:39;;;;;;;2.62;2.17;;;13.80;77.30;;;;;;1858182;77;21119;-57
2022/05/01 02:50:09;;;;;;;2.27;1.72;;;13.70;77.40;;;;;;1858127;77;21158;-57
2022/05/01 02:52:38;;;;;;;3.25;2.33;;;13.70;76.90;;;;;;1858064;77;21142;-57
2022/05/01 02:55:09;;;;;;;3.45;2.58;;;13.60;77.00;;;;;;1858044;77;21163;-57
2022/05/01 02:57:38;;;;;;;4.50;2.05;;;13.60;77.70;;;;;;1858041;77;21009;-57
2022/05/01 03:00:16;;;;;;;2.50;2.10;;;13.60;76.70;;;;;;1858115;77;21096;-57
2022/05/01 03:02:40;;;;;;;2.90;2.08;;;13.60;76.90;;;;;;1857839;77;21644;-57
2022/05/01 03:05:09;;;;;;;2.30;2.10;;;13.60;76.20;;;;;;1858268;77;21009;-57
2022/05/01 03:07:39;;;;;;;3.12;2.52;;;13.60;76.50;;;;;;1858174;77;21041;-58
2022/05/01 03:10:10;;;;;;;2.00;1.80;;;13.50;76.00;;;;;;1854557;77;21505;-57
2022/05/01 03:12:39;;;;;;;3.58;1.98;;;13.50;75.90;;;;;;1851101;77;21152;-57
2022/05/01 03:15:09;;;;;;;2.72;2.02;;;13.50;75.60;;;;;;1851070;77;21090;-57
2022/05/01 03:23:14;;;;;;;1.80;1.67;;;13.50;75.80;;;;;;1851001;77;21043;-57
2022/05/01 03:25:43;;;;;;;3.02;2.05;;;13.50;75.70;;;;;;1851053;76;21568;-56
2022/05/01 03:28:12;;;;;;;2.87;2.27;;;13.50;75.90;;;;;;1851097;76;21054;-57
2022/05/01 03:30:42;;;;;;;5.20;2.33;;;13.50;75.40;;;;;;1850939;77;21027;-57
2022/05/01 03:33:11;;;;;;;2.75;2.00;;;13.50;75.20;;;;;;1850935;77;21102;-57
2022/05/01 03:35:41;;;;;;;2.80;2.02;;;13.50;75.20;;;;;;1851083;77;21062;-57
2022/05/01 03:38:10;;;;;;;2.37;1.77;;;13.50;75.60;;;;;;1850973;77;21019;-57
2022/05/01 03:40:40;;;;;;;4.87;2.42;;;13.50;75.30;;;;;;1850956;76;21062;-57
2022/05/01 03:43:09;;;;;;;2.65;2.10;;;13.50;75.30;;;;;;1850936;77;21062;-57
2022/05/01 03:45:39;;;;;;;2.15;1.85;;;13.50;75.60;;;;;;1851049;77;21042;-57
2022/05/01 03:48:08;;;;;;;2.52;2.30;;;13.60;75.20;;;;;;1851151;77;21181;-57
2022/05/01 03:50:38;;;;;;;4.25;2.20;;;13.60;75.40;;;;;;1851005;77;21078;-57
2022/05/01 03:53:08;;;;;;;3.42;1.87;;;13.60;75.20;;;;;;1850958;76;21120;-57
2022/05/01 03:55:37;;;;;;;2.67;2.22;;;13.60;75.40;;;;;;1850976;76;21019;-57
2022/05/01 03:58:06;;;;;;;2.40;2.20;;;13.60;75.30;;;;;;1850956;77;21127;-57
2022/05/01 04:00:35;;;;;;;2.52;2.30;;;13.50;75.40;;;;;;1850945;77;21043;-57
2022/05/01 04:03:04;;;;;;;1.87;1.72;;;13.60;75.40;;;;;;1851095;76;21300;-58
2022/05/01 04:05:34;;;;;;;3.08;2.70;;;13.50;75.40;;;;;;1851006;77;21062;-58
2022/05/01 04:08:03;;;;;;;4.28;2.08;;;13.60;75.60;;;;;;1850937;77;21038;-57
2022/05/01 04:10:33;;;;;;;2.92;1.85;;;13.60;75.50;;;;;;1856465;76;21070;-57
2022/05/01 04:13:03;;;;;;;3.37;2.30;;;13.70;75.40;;;;;;1863104;76;21070;-57
2022/05/01 04:15:32;;;;;;;3.40;2.02;;;13.60;75.40;;;;;;1862930;76;21050;-57
2022/05/01 04:18:06;;;;;;;18.60;3.67;;;13.60;75.40;;;;;;1862970;77;21038;-57
2022/05/01 04:20:37;;;;;;;11.05;3.45;;;13.60;75.40;;;;;;1862371;76;21042;-57
2022/05/01 04:23:08;;;;;;;5.92;2.75;;;13.70;75.30;;;;;;1862379;77;21488;-57
2022/05/01 04:25:35;;;;;;;7.42;3.10;;;13.60;75.40;;;;;;1862416;76;21132;-57
2022/05/01 04:28:07;;;;;;;8.13;3.83;;;13.60;75.50;;;;;;1862966;76;21038;-57
2022/05/01 04:30:37;;;;;;;4.28;2.92;;;13.60;75.80;;;;;;1862928;77;21030;-57
2022/05/01 04:33:13;;;;;;;4.37;2.35;;;13.70;75.70;;;;;;1862891;76;21058;-57
2022/05/01 04:35:44;;;;;;;7.20;2.87;;;13.70;75.50;;;;;;1862728;77;21128;-57
2022/05/01 04:38:16;;;;;;;3.67;1.90;;;13.70;75.20;;;;;;1863036;77;21108;-57
2022/05/01 04:40:47;;;;;;;2.33;1.75;;;13.70;75.00;;;;;;1863002;77;21077;-57
2022/05/01 04:43:18;;;;;;;3.35;1.60;;;13.60;75.20;;;;;;1862960;76;21034;-58
2022/05/01 04:45:49;;;;;;;5.42;2.72;;;13.60;75.40;;;;;;1862933;77;21070;-57
2022/05/01 04:48:19;;;;;;;2.40;1.90;;;13.50;75.60;;;;;;1862901;76;21071;-57
2022/05/01 04:50:49;;;;;;;6.78;2.15;;;13.50;75.90;;;;;;1862931;77;21097;-58
2022/05/01 04:53:20;;;;;;;6.70;2.60;;;13.60;76.00;;;;;;1862909;76;21311;-58
2022/05/01 04:55:52;;;;;;;4.00;1.75;;;13.60;76.00;;;;;;1862951;76;21070;-58
2022/05/01 04:58:22;;;;;;;9.70;2.00;;;13.70;76.00;;;;;;1862941;76;21030;-58
2022/05/01 05:00:51;;;;;;;2.72;2.30;;;13.80;75.90;;;;;;1862962;77;21124;-58
2022/05/01 05:03:21;;;;;;;2.98;2.35;;;13.80;75.80;;;;;;1862864;77;21047;-58
2022/05/01 05:05:50;;;;;;;3.22;2.50;;;13.80;75.50;;;;;;1862956;77;21100;-58
2022/05/01 05:11:07;;;;;;;6.55;2.27;;;13.90;75.50;;;;;;1862890;77;21081;-58
2022/05/01 05:13:36;;;;;;;4.22;3.10;;;13.80;75.70;;;;;;1862841;77;21042;-58
2022/05/01 05:16:12;;;;;;;6.72;2.87;;;13.90;75.80;;;;;;1862806;76;21018;-58
2022/05/01 05:18:37;;;;;;;5.53;2.87;;;13.90;75.70;;;;;;1862739;76;21061;-58
2022/05/01 05:21:06;;;;;;;8.93;7.42;;;14.00;75.70;;;;;;1862915;76;21123;-58
2022/05/01 05:23:35;;;;;;;6.00;2.70;;;14.00;75.40;;;;;;1862912;76;21046;-58
2022/05/01 05:26:04;;;;;;;4.22;2.77;;;14.00;75.40;;;;;;1863037;77;21132;-58
2022/05/01 05:28:34;;;;;;;4.22;2.75;;;14.00;75.40;;;;;;1862940;76;21046;-58
2022/05/01 05:31:04;;;;;;;4.67;2.45;;;14.00;75.50;;;;;;1862981;76;21054;-58
2022/05/01 05:33:33;;;;;;;5.37;2.80;;;14.00;75.70;;;;;;1862945;76;21124;-59
2022/05/01 05:36:02;;;;;;;7.75;2.52;;;14.00;75.80;;;;;;1863099;76;21120;-58
2022/05/01 05:38:33;;;;;;;3.33;2.70;;;14.00;75.80;;;;;;1862945;77;21046;-58
2022/05/01 05:41:02;;;;;;;2.87;2.35;;;14.10;75.90;;;;;;1863106;77;21050;-58
2022/05/01 05:43:32;;;;;;;3.67;2.40;;;14.20;75.80;;;;;;1863076;76;21018;-58
2022/05/01 05:46:01;;;;;;;5.10;2.60;;;14.30;75.60;;;;;;1862806;76;21042;-59
2022/05/01 05:48:30;;;;;;;11.55;3.20;;;14.30;75.40;;;;;;1862917;77;21123;-58
2022/05/01 05:50:59;;;;;;;5.70;2.90;;;14.40;75.50;;;;;;1862924;76;21634;-58
2022/05/01 05:53:29;;;;;;;4.50;2.80;;;14.50;75.40;;;;;;1862858;77;21459;-58
2022/05/01 05:55:59;;;;;;;5.00;2.20;;;14.60;75.20;;;;;;1862762;77;21022;-58
2022/05/01 05:58:28;;;;;;;3.75;2.17;;;14.50;74.90;;;;;;1862817;76;21121;-56
2022/05/01 06:00:57;;;;;;;4.33;1.90;;;14.60;75.10;;;;;;1862854;77;21022;-56
2022/05/01 06:03:27;;;;;;;5.25;2.98;;;14.60;75.20;;;;;;1862824;77;21050;-57
2022/05/01 06:05:56;;;;;;;4.72;2.92;;;14.60;75.30;;;;;;1862894;77;21038;-56
2022/05/01 06:08:25;;;;;;;3.42;1.98;;;14.60;75.40;;;;;;1862939;77;21116;-57
2022/05/01 06:10:55;;;;;;;4.58;2.17;;;14.70;75.40;;;;;;1862319;76;21181;-56
2022/05/01 06:13:24;;;;;;;4.55;3.55;;;14.70;75.40;;;;;;1858012;76;21022;-56
2022/05/01 06:15:53;;;;;;;5.03;2.42;;;14.80;75.60;;;;;;1858124;77;21529;-56
2022/05/01 06:18:23;;;;;;;9.38;4.12;;;14.90;75.50;;;;;;1858158;77;21041;-56
2022/05/01 06:20:53;;;;;;;8.93;4.37;;;14.90;75.30;;;;;;1857986;77;21033;-57
2022/05/01 06:23:23;;;;;;;5.60;3.52;;;15.00;75.10;;;;;;1858141;77;21061;-58
2022/05/01 06:25:52;;;;;;;2.55;1.90;;;15.00;75.10;;;;;;1858055;77;21099;-58
2022/05/01 06:28:21;;;;;;;4.12;2.67;;;15.00;75.10;;;;;;1858013;77;21447;-57
2022/05/01 06:30:52;;;;;;;4.78;3.02;;;15.00;75.10;;;;;;1858156;77;21115;-58
2022/05/01 06:33:23;;;;;;;7.33;3.40;;;15.00;75.20;;;;;;1858063;77;21029;-57
2022/05/01 06:35:54;;;;;;;8.15;2.90;;;15.00;75.20;;;;;;1858059;77;21045;-57
2022/05/01 06:38:24;;;;;;;3.37;2.30;;;14.90;75.20;;;;;;1858084;77;21037;-57
2022/05/01 06:40:53;;;;;;;5.75;3.05;;;14.90;75.30;;;;;;1857999;77;21029;-57
2022/05/01 06:43:22;;;;;;;8.55;3.05;;;14.90;75.40;;;;;;1858151;77;21037;-57
2022/05/01 06:45:52;;;;;;;6.65;3.67;;;14.90;75.80;;;;;;1858028;77;21091;-57
2022/05/01 06:48:22;;;;;;;3.00;1.80;;;14.90;75.80;;;;;;1858087;77;21091;-57
2022/05/01 06:50:51;;;;;;;3.95;3.08;;;15.00;75.50;;;;;;1858125;77;21013;-57
2022/05/01 06:53:21;;;;;;;4.85;3.50;;;15.00;75.60;;;;;;1858023;76;21033;-57
2022/05/01 06:55:50;;;;;;;6.80;3.42;;;15.10;75.60;;;;;;1858131;76;21104;-57
2022/05/01 06:58:20;;;;;;;4.87;3.10;;;15.20;75.60;;;;;;1857929;77;21146;-57
2022/05/01 07:00:51;;;;;;;5.70;2.72;;;15.20;75.50;;;;;;1858070;76;21440;-57
2022/05/01 07:03:21;;;;;;;3.47;3.12;;;15.30;75.30;;;;;;1858038;76;21134;-57
2022/05/01 07:05:50;;;;;;;5.17;3.50;;;15.30;75.30;;;;;;1858124;77;21088;-56
2022/05/01 07:08:20;;;;;;;6.10;3.50;;;15.40;75.50;;;;;;1858025;77;21150;-57
2022/05/01 07:10:49;;;;;;;8.05;3.83;;;15.50;75.30;;;;;;1857905;77;21561;-57
2022/05/01 07:13:18;;;;;;;8.73;4.17;;;15.50;75.10;;;;;;1857922;76;21053;-57
2022/05/01 07:15:48;;;;;;;4.90;3.77;;;15.70;74.80;;;;;;1858036;77;21464;-58
2022/05/01 07:18:17;;;;;;;5.75;3.60;;;15.70;74.80;;;;;;1858099;77;21110;-57
2022/05/01 07:20:47;;;;;;;8.43;4.28;;;15.80;74.40;;;;;;1857918;77;21103;-58
2022/05/01 07:23:21;;;;;;;8.18;3.47;;;15.80;74.10;;;;;;1858099;77;21171;-57
2022/05/01 07:25:47;;;;;;;10.82;3.30;;;15.80;74.30;;;;;;1858017;77;21565;-57
2022/05/01 07:28:16;;;;;;;6.05;2.72;;;15.80;74.30;;;;;;1858018;76;21053;-57
2022/05/01 07:30:45;;;;;;;8.13;3.05;;;15.80;73.90;;;;;;1858073;77;21115;-57
2022/05/01 07:33:15;;;;;;;4.67;3.30;;;15.80;73.90;;;;;;1857979;77;21010;-58
2022/05/01 07:35:44;;;;;;;6.65;4.17;;;15.70;74.10;;;;;;1857990;77;21013;-58
2022/05/01 07:38:14;;;;;;;3.58;3.00;;;15.70;74.20;;;;;;1858026;77;21033;-57
2022/05/01 07:40:43;;;;;;;3.30;2.80;;;15.70;74.30;;;;;;1857956;77;21103;-58
2022/05/01 07:43:12;;;;;;;6.40;3.30;;;15.70;74.30;;;;;;1857923;77;21013;-57
2022/05/01 07:45:42;;;;;;;7.40;3.17;;;15.70;74.20;;;;;;1857935;76;21033;-58
2022/05/01 07:48:12;;;;;;;5.47;3.47;;;15.70;74.20;;;;;;1857924;77;21033;-57
2022/05/01 07:50:41;;;;;;;8.25;3.52;;;15.70;74.00;;;;;;1858113;77;21117;-58
2022/05/01 07:53:10;;;;;;;13.70;7.47;;;15.70;74.20;;;;;;1858119;76;21076;-57
2022/05/01 07:55:39;;;;;;;5.25;3.80;;;15.80;74.20;;;;;;1858176;77;21033;-58
2022/05/01 07:58:09;;;;;;;6.25;4.05;;;15.80;74.00;;;;;;1858059;76;21029;-57
2022/05/01 08:00:38;;;;;;;2.77;2.33;;;15.80;73.70;;;;;;1858178;77;21062;-57
2022/05/01 08:05:55;;;;;;;3.62;3.05;;;15.90;73.40;;;;;;1858186;76;21123;-57
2022/05/01 08:08:24;;;;;;;5.17;3.27;;;16.00;73.60;;;;;;1858189;77;21038;-58
2022/05/01 08:10:54;;;;;;;7.55;2.80;;;16.10;72.40;;;;;;1858113;77;21103;-57
2022/05/01 08:13:23;;;;;;;3.27;2.62;;;16.00;71.70;;;;;;1858104;77;21061;-58
2022/05/01 08:15:53;;;;;;;5.97;2.92;;;15.90;71.90;;;;;;1858149;76;21022;-57
2022/05/01 08:21:10;;;;;;;6.05;3.50;;;15.90;72.80;;;;;;1858219;77;21045;-57
2022/05/01 08:23:41;;;;;;;5.70;3.72;;;15.90;72.50;;;;;;1858082;77;21005;-57
2022/05/01 08:26:11;;;;;;;6.10;3.62;;;15.90;72.60;;;;;;1858143;77;21158;-57
2022/05/01 08:28:41;;;;;;;5.53;3.02;;;16.00;72.40;;;;;;1858179;77;21134;-57
2022/05/01 08:31:11;;;;;;;10.70;3.52;;;16.00;72.30;;;;;;1858186;77;21038;-57
2022/05/01 08:33:41;;;;;;;7.20;3.83;;;16.00;72.30;;;;;;1858142;76;21084;-57
2022/05/01 08:36:10;;;;;;;9.25;3.67;;;15.90;72.40;;;;;;1858015;76;21072;-57
2022/05/01 08:38:40;;;;;;;8.13;3.62;;;15.90;72.60;;;;;;1857965;77;21324;-56
2022/05/01 08:41:10;;;;;;;4.95;3.62;;;16.00;72.20;;;;;;1857983;76;21037;-57
2022/05/01 08:43:40;;;;;;;6.25;3.70;;;16.00;72.40;;;;;;1858122;77;21111;-57
2022/05/01 08:46:40;;;;;;;3.45;2.92;;;16.00;72.10;;;;;;1858156;77;21103;-58
2022/05/01 08:49:10;;;;;;;3.65;3.00;;;16.00;71.10;;;;;;1858173;77;21156;-57
2022/05/01 08:51:41;;;;;;;7.22;3.98;;;15.90;71.60;;;;;;1858084;76;21029;-57
2022/05/01 08:54:12;;;;;;;3.92;2.83;;;15.90;71.80;;;;;;1858205;77;21049;-57
2022/05/01 08:56:43;;;;;;;10.30;4.62;;;15.90;71.50;;;;;;1858144;76;21030;-58
2022/05/01 08:59:14;;;;;;;6.83;2.98;;;15.80;71.70;;;;;;1858105;77;21017;-57
2022/05/01 09:01:45;;;;;;;8.88;3.62;;;15.80;72.10;;;;;;1858052;76;21057;-57
2022/05/01 09:04:15;;;;;;;10.65;6.67;;;15.80;71.70;;;;;;1858009;76;21027;-58
2022/05/01 09:06:45;;;;;;;6.08;3.17;;;15.80;71.70;;;;;;1858164;77;21103;-58
2022/05/01 09:09:22;;;;;;;8.90;3.60;;;15.70;72.00;;;;;;1858180;77;21083;-58
2022/05/01 09:14:43;;;;;;;7.85;3.00;;;15.70;72.40;;;;;;1857970;77;21192;-57
2022/05/01 09:17:21;;;;;;;3.17;2.77;;;15.70;72.00;;;;;;1857975;77;21025;-58
2022/05/01 09:19:53;;;;;;;10.18;4.47;;;15.70;71.60;;;;;;1858151;76;21169;-58
2022/05/01 09:22:23;;;;;;;8.28;5.15;;;15.70;72.10;;;;;;1858163;77;21037;-58
2022/05/01 09:24:53;;;;;;;9.58;4.78;;;15.70;72.10;;;;;;1858073;76;21103;-57
2022/05/01 09:27:32;;;;;;;7.20;3.47;;;15.70;72.10;;;;;;1858053;77;21088;-57
2022/05/01 09:30:22;;;;;;;5.97;3.45;;;15.70;72.20;;;;;;1857932;76;21081;-57
2022/05/01 09:32:54;;;;;;;4.55;3.00;;;15.80;72.20;;;;;;1857946;77;21069;-57
2022/05/01 09:35:36;;;;;;;6.65;4.00;;;15.80;72.30;;;;;;1857971;76;21065;-57
2022/05/01 09:38:21;;;;;;;3.90;2.87;;;15.80;72.20;;;;;;1858057;76;21045;-57
2022/05/01 09:40:58;;;;;;;8.45;3.40;;;16.00;72.10;;;;;;1857934;77;21174;-56
2022/05/01 09:43:47;;;;;;;5.15;2.83;;;16.00;71.60;;;;;;1857466;77;21471;-56
2022/05/01 09:46:32;;;;;;;4.37;2.62;;;16.00;71.10;;;;;;1856344;77;21025;-56
2022/05/01 09:49:06;;;;;;;2.67;2.37;;;16.10;71.20;;;;;;1858015;77;21029;-56
2022/05/01 09:51:43;;;;;;;3.92;3.22;;;16.10;71.00;;;;;;1858143;76;21010;-56
2022/05/01 09:54:08;;;;;;;8.25;3.75;;;16.00;71.20;;;;;;1857319;76;21002;-56
2022/05/01 09:56:48;;;;;;;8.65;3.72;;;16.00;71.20;;;;;;1858014;77;21009;-56
2022/05/01 09:59:20;;;;;;;13.00;4.72;;;15.90;71.30;;;;;;1858204;77;21005;-56
2022/05/01 10:02:03;;;;;;;5.28;3.12;;;15.90;71.60;;;;;;1857996;76;21091;-56
2022/05/01 10:04:34;;;;;;;4.78;3.22;;;15.90;71.20;;;;;;1858109;76;21065;-56
2022/05/01 10:07:04;;;;;;;5.50;3.08;;;15.80;71.40;;;;;;1858059;76;21005;-56
2022/05/01 10:09:35;;;;;;;13.40;4.95;;;15.80;71.80;;;;;;1857931;77;21022;-56
2022/05/01 10:12:07;;;;;;;6.95;3.70;;;15.80;72.00;;;;;;1858023;76;21033;-57
2022/05/01 10:14:36;;;;;;;6.42;4.08;;;15.70;71.90;;;;;;1858013;77;21057;-57
2022/05/01 10:17:07;;;;;;;5.00;3.35;;;15.70;72.10;;;;;;1858039;77;21025;-57
2022/05/01 10:19:37;;;;;;;5.30;3.30;;;15.60;72.10;;;;;;1857968;77;21009;-57
2022/05/01 10:22:07;;;;;;;10.90;3.42;;;15.60;72.20;;;;;;1858049;77;21030;-56
2022/05/01 10:24:37;;;;;;;5.75;4.45;;;15.40;72.30;;;;;;1858020;77;21025;-57
2022/05/01 10:27:24;;;;;;;9.38;6.00;;;15.40;72.60;;;;;;1858091;77;21178;-56
2022/05/01 10:33:13;;;;;;;9.13;3.92;;;15.40;72.80;;;;;;1858201;77;21111;-57
2022/05/01 10:35:52;;;;;;;8.15;3.60;;;15.30;72.60;;;;;;1858136;76;21103;-57
2022/05/01 10:38:45;;;;;;;6.72;3.70;;;15.30;72.80;;;;;;1858145;76;21143;-56
2022/05/01 10:41:17;;;;;;;3.80;3.17;;;15.30;72.90;;;;;;1857948;77;21095;-57
2022/05/01 10:43:57;;;;;;;3.62;2.83;;;15.40;72.80;;;;;;1858077;77;21005;-56
2022/05/01 10:46:29;;;;;;;6.25;3.60;;;15.40;72.60;;;;;;1857955;77;21174;-57
2022/05/01 10:49:01;;;;;;;9.68;4.40;;;15.30;72.50;;;;;;1858151;77;21091;-57
2022/05/01 10:51:40;;;;;;;7.97;4.60;;;15.40;72.90;;;;;;1858086;77;21513;-57
2022/05/01 10:54:15;;;;;;;5.37;3.70;;;15.30;72.90;;;;;;1857611;77;21112;-57
2022/05/01 10:56:47;;;;;;;5.10;3.70;;;15.30;73.10;;;;;;1857962;77;21057;-57
2022/05/01 10:59:34;;;;;;;7.42;4.08;;;15.30;73.30;;;;;;1858101;77;21001;-57
2022/05/01 11:02:06;;;;;;;9.70;4.65;;;15.20;73.70;;;;;;1858065;76;21030;-57
2022/05/01 11:04:43;;;;;;;6.92;4.80;;;15.10;74.10;;;;;;1858041;77;21533;-57
2022/05/01 11:07:16;;;;;;;5.50;2.95;;;15.10;74.50;;;;;;1858066;76;21233;-57
2022/05/01 11:09:46;;;;;;;6.72;3.52;;;15.00;75.20;;;;;;1857977;77;21131;-56
2022/05/01 11:12:19;;;;;;;12.78;5.30;;;15.00;75.30;;;;;;1857915;77;21033;-57
2022/05/01 11:14:54;;;;;;;16.10;8.73;;;14.90;75.70;;;;;;1858010;77;21476;-57
2022/05/01 11:17:46;;;;;;;9.50;5.25;;;14.90;75.90;;;;;;1858167;77;21029;-56
2022/05/01 11:20:24;;;;;;;10.60;5.10;;;14.90;75.70;;;;;;1857365;77;21146;-57
2022/05/01 11:22:53;;;;;;;10.20;5.28;;;14.80;75.70;;;;;;1857938;77;21021;-57
2022/05/01 11:25:34;;;;;;;7.85;4.35;;;14.80;75.60;;;;;;1858203;76;21025;-56
2022/05/01 11:28:04;;;;;;;8.85;4.80;;;14.80;75.70;;;;;;1857956;76;22053;-57
2022/05/01 11:30:35;;;;;;;7.12;5.60;;;14.90;75.60;;;;;;1858273;77;21022;-57
2022/05/01 11:33:11;;;;;;;15.58;7.62;;;14.90;75.50;;;;;;1858294;77;21037;-57
2022/05/01 11:36:01;;;;;;;20.57;7.87;;;14.90;75.50;;;;;;1858243;77;21021;-57
2022/05/01 11:38:39;;;;;;;10.15;5.87;;;14.80;75.10;;;;;;1858328;77;21037;-57
2022/05/01 11:41:10;;;;;;;11.97;6.37;;;14.80;75.10;;;;;;1858329;76;21131;-57
2022/05/01 11:43:40;;;;;;;8.10;4.95;;;14.80;75.10;;;;;;1858314;77;21537;-58
2022/05/01 11:46:12;;;;;;;7.30;5.05;;;14.80;74.90;;;;;;1858236;76;21111;-57
2022/05/01 11:48:41;;;;;;;5.92;4.35;;;14.80;75.60;;;;;;1856978;77;21150;-57
2022/05/01 11:51:11;;;;;;;6.90;4.30;;;14.70;76.40;;;;;;1858134;77;21107;-57
2022/05/01 11:53:41;;;;;;;8.13;3.58;;;14.60;76.50;;;;;;1858210;77;21418;-57
2022/05/01 12:04:38;;;;;;;8.28;4.70;;;14.40;77.20;;;;;;1858177;77;21033;-57
2022/05/01 12:07:13;;;;;;;6.62;4.08;;;14.30;77.40;;;;;;1858101;76;21107;-57
2022/05/01 12:09:42;;;;;;;6.95;4.30;;;14.30;77.50;;;;;;1858214;76;21065;-57
2022/05/01 12:12:13;;;;;;;6.10;3.42;;;14.40;77.80;;;;;;1858144;77;21081;-57
2022/05/01 12:14:44;;;;;;;4.70;3.45;;;14.40;77.80;;;;;;1856905;77;21067;-57
2022/05/01 12:17:24;;;;;;;5.25;3.98;;;14.30;78.10;;;;;;1851044;77;21035;-57
2022/05/01 12:19:58;;;;;;;8.48;3.98;;;14.20;78.50;;;;;;1850827;76;21054;-57
2022/05/01 12:22:37;;;;;;;9.03;3.67;;;14.10;78.60;;;;;;1850900;76;21124;-57
2022/05/01 12:25:03;;;;;;;13.48;5.47;;;14.10;79.10;;;;;;1851010;76;21058;-57
2022/05/01 12:27:40;;;;;;;2.98;2.45;;;14.00;79.30;;;;;;1850868;76;21057;-57
2022/05/01 12:30:07;;;;;;;5.80;4.03;;;14.00;80.20;;;;;;1851134;76;21059;-57
2022/05/01 12:32:37;;;;;;;7.37;4.20;;;13.90;80.30;;;;;;1850803;77;21379;-57
2022/05/01 12:35:08;;;;;;;7.83;4.80;;;13.80;80.80;;;;;;1850799;77;21062;-57
2022/05/01 12:37:38;;;;;;;14.60;6.12;;;13.80;81.20;;;;;;1850917;77;21047;-57
2022/05/01 12:40:13;;;;;;;7.33;5.75;;;13.80;81.30;;;;;;1850907;77;21071;-57
2022/05/01 12:45:47;;;;;;;7.25;6.40;;;13.70;82.70;;;;;;1851178;76;21051;-57
2022/05/01 12:48:18;;;;;;;13.65;6.75;;;13.70;82.60;;;;;;1850925;77;21062;-57
2022/05/01 12:50:51;;;;;;;10.25;6.65;;;13.70;82.60;;;;;;1851093;77;21481;-57
2022/05/01 12:53:29;;;;;;;10.23;7.12;;;13.70;82.30;;;;;;1851119;76;21062;-58
2022/05/01 12:56:03;;;;;;;9.40;7.58;;;13.70;83.50;;;;;;1850936;76;21046;-57
2022/05/01 12:58:34;;;;;;;9.45;6.67;;;13.60;84.10;;;;;;1851025;76;21098;-57
2022/05/01 13:01:06;;;;;;;10.20;7.87;;;13.50;84.90;;;;;;1850983;77;21050;-57
2022/05/01 13:03:37;;;;;;;11.90;6.62;;;13.50;84.50;;;;;;1850894;77;21117;-58
2022/05/01 13:06:11;;;;;;;9.75;5.90;;;13.50;85.70;;;;;;1850910;76;21038;-58
2022/05/01 13:08:42;;;;;;;6.12;5.08;;;13.40;85.90;;;;;;1850942;76;21043;-58
2022/05/01 13:11:21;;;;;;;12.88;4.40;;;13.40;86.60;;;;;;1850873;77;21667;-58
2022/05/01 13:14:13;;;;;;;5.08;4.22;;;13.30;86.40;;;;;;1850894;76;21043;-57
2022/05/01 13:16:47;;;;;;;12.23;6.22;;;13.20;86.90;;;;;;1851097;77;21180;-57
2022/05/01 13:19:19;;;;;;;8.85;6.22;;;13.10;86.90;;;;;;1851039;77;21020;-57
2022/05/01 13:21:53;;;;;;;6.75;5.17;;;13.10;87.70;;;;;;1850899;77;21007;-57
2022/05/01 13:24:33;;;;;;;7.37;6.10;;;13.00;86.60;;;;;;1850909;77;21167;-57
2022/05/01 13:27:01;;;;;;;8.53;5.50;;;13.10;86.80;;;;;;1850353;77;21546;-57
2022/05/01 13:29:31;;;;;;;10.20;5.70;;;13.10;87.00;;;;;;1849842;77;21124;-57
2022/05/01 13:32:07;;;;;;;11.18;6.30;;;13.10;86.60;;;;;;1850853;76;21121;-57
2022/05/01 13:34:34;;;;;;;7.83;5.92;;;13.10;86.40;;;;;;1850471;77;21058;-57
2022/05/01 13:37:06;;;;;;;7.42;6.37;;;13.10;86.50;;;;;;1850962;76;21039;-57
2022/05/01 13:45:10;;;;;;;12.80;7.17;;;13.10;87.10;;;;;;1851114;76;21189;-58
2022/05/01 13:47:40;;;;;;;6.45;5.53;;;13.10;86.50;;;;;;1851037;77;21587;-57
2022/05/01 13:50:10;;;;;;;10.15;7.00;;;13.10;87.10;;;;;;1850918;76;21116;-58
2022/05/01 13:52:39;;;;;;;7.53;6.03;;;13.10;86.30;;;;;;1850875;77;21078;-57